sensor_id;sensor_type;location;lat;lon;timestamp;temperature;humidity
4107;DHT22;21906;50.812;7.132;2024-01-11T00:02:23;-3275.40;64.10
4107;DHT22;21906;50.812;7.132;2024-01-11T00:04:50;-3275.30;64.40
4107;DHT22;21906;50.812;7.132;2024-01-11T00:07:15;-3275.40;64.70
4107;DHT22;21906;50.812;7.132;2024-01-11T00:09:42;-3275.30;64.70
4107;DHT22;21906;50.812;7.132;2024-01-11T00:12:08;-3275.40;64.70
4107;DHT22;21906;50.812;7.132;2024-01-11T00:14:34;-3275.40;64.60
4107;DHT22;21906;50.812;7.132;2024-01-11T00:17:00;-3275.40;64.60
4107;DHT22;21906;50.812;7.132;2024-01-11T00:19:26;-3275.30;64.70
4107;DHT22;21906;50.812;7.132;2024-01-11T00:21:52;-3275.30;64.70
4107;DHT22;21906;50.812;7.132;2024-01-11T00:24:18;-3275.30;64.80
4107;DHT22;21906;50.812;7.132;2024-01-11T00:26:43;-3275.30;65.00
4107;DHT22;21906;50.812;7.132;2024-01-11T00:29:09;-3275.30;65.20
4107;DHT22;21906;50.812;7.132;2024-01-11T00:31:35;-3275.30;65.10
4107;DHT22;21906;50.812;7.132;2024-01-11T00:34:01;-3275.30;65.10
4107;DHT22;21906;50.812;7.132;2024-01-11T00:36:26;-3275.30;65.20
4107;DHT22;21906;50.812;7.132;2024-01-11T00:38:54;-3275.20;65.30
4107;DHT22;21906;50.812;7.132;2024-01-11T00:41:19;-3275.30;65.40
4107;DHT22;21906;50.812;7.132;2024-01-11T00:43:45;-3275.10;65.40
4107;DHT22;21906;50.812;7.132;2024-01-11T00:46:11;-3275.20;65.70
4107;DHT22;21906;50.812;7.132;2024-01-11T00:48:37;-3275.20;65.20
4107;DHT22;21906;50.812;7.132;2024-01-11T00:51:06;-3275.30;65.00
4107;DHT22;21906;50.812;7.132;2024-01-11T00:53:33;-3275.30;64.90
4107;DHT22;21906;50.812;7.132;2024-01-11T00:55:59;-3275.20;64.90
4107;DHT22;21906;50.812;7.132;2024-01-11T00:58:28;-3275.20;64.90
4107;DHT22;21906;50.812;7.132;2024-01-11T01:00:53;-3275.10;65.10
4107;DHT22;21906;50.812;7.132;2024-01-11T01:03:20;-3275.00;65.60
4107;DHT22;21906;50.812;7.132;2024-01-11T01:05:46;-3275.00;65.30
4107;DHT22;21906;50.812;7.132;2024-01-11T01:08:12;-3275.10;65.30
4107;DHT22;21906;50.812;7.132;2024-01-11T01:10:38;-3275.00;65.40
4107;DHT22;21906;50.812;7.132;2024-01-11T01:13:04;-3275.00;65.50
4107;DHT22;21906;50.812;7.132;2024-01-11T01:15:30;-3275.10;65.50
4107;DHT22;21906;50.812;7.132;2024-01-11T01:17:55;-3275.10;65.20
4107;DHT22;21906;50.812;7.132;2024-01-11T01:20:22;-3275.20;65.00
4107;DHT22;21906;50.812;7.132;2024-01-11T01:22:47;-3275.20;64.90
4107;DHT22;21906;50.812;7.132;2024-01-11T01:25:13;-3275.10;65.00
4107;DHT22;21906;50.812;7.132;2024-01-11T01:27:39;-3275.10;65.20
4107;DHT22;21906;50.812;7.132;2024-01-11T01:30:05;-3275.00;65.40
4107;DHT22;21906;50.812;7.132;2024-01-11T01:32:32;-3275.00;65.60
4107;DHT22;21906;50.812;7.132;2024-01-11T01:34:57;-3275.00;65.60
4107;DHT22;21906;50.812;7.132;2024-01-11T01:37:23;-3275.00;65.70
4107;DHT22;21906;50.812;7.132;2024-01-11T01:39:49;-3275.00;65.70
4107;DHT22;21906;50.812;7.132;2024-01-11T01:42:14;-3275.00;65.70
4107;DHT22;21906;50.812;7.132;2024-01-11T01:44:40;-3274.80;65.90
4107;DHT22;21906;50.812;7.132;2024-01-11T01:47:08;-3274.80;66.40
4107;DHT22;21906;50.812;7.132;2024-01-11T01:49:35;-3274.80;66.30
4107;DHT22;21906;50.812;7.132;2024-01-11T01:52:01;-3274.90;66.10
4107;DHT22;21906;50.812;7.132;2024-01-11T01:54:29;-3274.90;65.90
4107;DHT22;21906;50.812;7.132;2024-01-11T01:56:55;-3275.00;65.70
4107;DHT22;21906;50.812;7.132;2024-01-11T01:59:24;-3275.00;65.40
4107;DHT22;21906;50.812;7.132;2024-01-11T02:01:50;-3275.00;65.50
4107;DHT22;21906;50.812;7.132;2024-01-11T02:04:16;-3275.00;65.40
4107;DHT22;21906;50.812;7.132;2024-01-11T02:06:44;-3275.00;65.40
4107;DHT22;21906;50.812;7.132;2024-01-11T02:09:13;-3275.00;65.20
4107;DHT22;21906;50.812;7.132;2024-01-11T02:11:39;-3274.90;65.30
4107;DHT22;21906;50.812;7.132;2024-01-11T02:14:07;-3274.90;65.40
4107;DHT22;21906;50.812;7.132;2024-01-11T02:16:32;-3274.90;65.10
4107;DHT22;21906;50.812;7.132;2024-01-11T02:18:58;-3274.90;65.10
4107;DHT22;21906;50.812;7.132;2024-01-11T02:21:24;-3275.10;65.00
4107;DHT22;21906;50.812;7.132;2024-01-11T02:24:12;-3275.10;64.70
4107;DHT22;21906;50.812;7.132;2024-01-11T02:27:00;-3275.00;64.70
4107;DHT22;21906;50.812;7.132;2024-01-11T02:29:27;-3274.90;65.10
4107;DHT22;21906;50.812;7.132;2024-01-11T02:31:54;-3274.90;65.30
4107;DHT22;21906;50.812;7.132;2024-01-11T02:34:20;-3274.80;65.50
4107;DHT22;21906;50.812;7.132;2024-01-11T02:36:46;-3274.80;65.50
4107;DHT22;21906;50.812;7.132;2024-01-11T02:39:12;-3274.70;65.90
4107;DHT22;21906;50.812;7.132;2024-01-11T02:41:39;-3274.70;66.00
4107;DHT22;21906;50.812;7.132;2024-01-11T02:44:05;-3274.70;65.80
4107;DHT22;21906;50.812;7.132;2024-01-11T02:46:31;-3274.60;66.00
4107;DHT22;21906;50.812;7.132;2024-01-11T02:48:56;-3274.60;66.10
4107;DHT22;21906;50.812;7.132;2024-01-11T02:51:22;-3274.70;66.10
4107;DHT22;21906;50.812;7.132;2024-01-11T02:53:48;-3274.80;65.70
4107;DHT22;21906;50.812;7.132;2024-01-11T02:56:13;-3274.80;65.50
4107;DHT22;21906;50.812;7.132;2024-01-11T02:58:39;-3274.70;65.40
4107;DHT22;21906;50.812;7.132;2024-01-11T03:01:05;-3274.60;66.10
4107;DHT22;21906;50.812;7.132;2024-01-11T03:03:31;-3274.60;66.10
4107;DHT22;21906;50.812;7.132;2024-01-11T03:05:57;-3274.50;66.20
4107;DHT22;21906;50.812;7.132;2024-01-11T03:08:22;-3274.50;66.40
4107;DHT22;21906;50.812;7.132;2024-01-11T03:10:48;-3274.50;66.60
4107;DHT22;21906;50.812;7.132;2024-01-11T03:13:13;-3274.50;66.50
4107;DHT22;21906;50.812;7.132;2024-01-11T03:15:39;-3274.40;66.50
4107;DHT22;21906;50.812;7.132;2024-01-11T03:18:05;-3274.50;66.60
4107;DHT22;21906;50.812;7.132;2024-01-11T03:20:31;-3274.50;66.60
4107;DHT22;21906;50.812;7.132;2024-01-11T03:22:56;-3274.60;66.40
4107;DHT22;21906;50.812;7.132;2024-01-11T03:25:22;-3274.50;66.50
4107;DHT22;21906;50.812;7.132;2024-01-11T03:27:47;-3274.50;66.50
4107;DHT22;21906;50.812;7.132;2024-01-11T03:30:13;-3274.50;66.60
4107;DHT22;21906;50.812;7.132;2024-01-11T03:32:40;-3274.50;66.40
4107;DHT22;21906;50.812;7.132;2024-01-11T03:35:07;-3274.50;66.10
4107;DHT22;21906;50.812;7.132;2024-01-11T03:37:33;-3274.60;66.00
4107;DHT22;21906;50.812;7.132;2024-01-11T03:40:00;-3274.70;65.70
4107;DHT22;21906;50.812;7.132;2024-01-11T03:42:26;-3274.70;65.50
4107;DHT22;21906;50.812;7.132;2024-01-11T03:44:51;-3274.70;65.40
4107;DHT22;21906;50.812;7.132;2024-01-11T03:47:17;-3274.60;65.50
4107;DHT22;21906;50.812;7.132;2024-01-11T03:49:43;-3274.50;65.70
4107;DHT22;21906;50.812;7.132;2024-01-11T03:52:08;-3274.30;66.20
4107;DHT22;21906;50.812;7.132;2024-01-11T03:54:34;-3274.30;66.20
4107;DHT22;21906;50.812;7.132;2024-01-11T03:56:59;-3274.40;66.20
4107;DHT22;21906;50.812;7.132;2024-01-11T03:59:25;-3274.40;66.10
4107;DHT22;21906;50.812;7.132;2024-01-11T04:01:51;-3274.40;66.00
4107;DHT22;21906;50.812;7.132;2024-01-11T04:04:18;-3274.40;66.00
4107;DHT22;21906;50.812;7.132;2024-01-11T04:06:44;-3274.40;66.20
4107;DHT22;21906;50.812;7.132;2024-01-11T04:09:10;-3274.30;66.30
4107;DHT22;21906;50.812;7.132;2024-01-11T04:11:36;-3274.40;66.10
4107;DHT22;21906;50.812;7.132;2024-01-11T04:14:02;-3274.30;66.30
4107;DHT22;21906;50.812;7.132;2024-01-11T04:16:27;-3274.30;66.40
4107;DHT22;21906;50.812;7.132;2024-01-11T04:18:53;-3274.30;66.40
4107;DHT22;21906;50.812;7.132;2024-01-11T04:21:26;-3274.30;66.70
4107;DHT22;21906;50.812;7.132;2024-01-11T04:23:55;-3274.10;67.00
4107;DHT22;21906;50.812;7.132;2024-01-11T04:26:21;-3274.30;66.20
4107;DHT22;21906;50.812;7.132;2024-01-11T04:28:48;-3274.30;66.00
4107;DHT22;21906;50.812;7.132;2024-01-11T04:31:15;-3274.30;66.10
4107;DHT22;21906;50.812;7.132;2024-01-11T04:33:45;-3274.30;66.20
4107;DHT22;21906;50.812;7.132;2024-01-11T04:36:12;-3274.20;66.10
4107;DHT22;21906;50.812;7.132;2024-01-11T04:38:38;-3274.30;66.10
4107;DHT22;21906;50.812;7.132;2024-01-11T04:41:10;-3274.20;66.10
4107;DHT22;21906;50.812;7.132;2024-01-11T04:43:41;-3274.20;66.20
4107;DHT22;21906;50.812;7.132;2024-01-11T04:46:17;-3274.10;66.30
4107;DHT22;21906;50.812;7.132;2024-01-11T04:48:43;-3274.10;66.50
4107;DHT22;21906;50.812;7.132;2024-01-11T04:51:10;-3274.10;66.30
4107;DHT22;21906;50.812;7.132;2024-01-11T04:53:37;-3274.10;66.80
4107;DHT22;21906;50.812;7.132;2024-01-11T04:56:03;-3274.00;66.40
4107;DHT22;21906;50.812;7.132;2024-01-11T04:58:29;-3274.00;66.50
4107;DHT22;21906;50.812;7.132;2024-01-11T05:00:55;-3273.90;66.80
4107;DHT22;21906;50.812;7.132;2024-01-11T05:03:20;-3274.00;66.50
4107;DHT22;21906;50.812;7.132;2024-01-11T05:05:46;-3274.00;66.70
4107;DHT22;21906;50.812;7.132;2024-01-11T05:08:12;-3273.90;66.90
4107;DHT22;21906;50.812;7.132;2024-01-11T05:10:37;-3273.80;67.50
4107;DHT22;21906;50.812;7.132;2024-01-11T05:13:03;-3273.80;67.30
4107;DHT22;21906;50.812;7.132;2024-01-11T05:15:29;-3273.90;67.10
4107;DHT22;21906;50.812;7.132;2024-01-11T05:17:58;-3273.90;67.20
4107;DHT22;21906;50.812;7.132;2024-01-11T05:20:24;-3273.80;67.30
4107;DHT22;21906;50.812;7.132;2024-01-11T05:22:49;-3273.90;66.60
4107;DHT22;21906;50.812;7.132;2024-01-11T05:25:15;-3274.00;66.30
4107;DHT22;21906;50.812;7.132;2024-01-11T05:27:41;-3274.00;66.20
4107;DHT22;21906;50.812;7.132;2024-01-11T05:30:07;-3274.00;66.20
4107;DHT22;21906;50.812;7.132;2024-01-11T05:32:32;-3274.00;66.20
4107;DHT22;21906;50.812;7.132;2024-01-11T05:34:58;-3274.00;66.10
4107;DHT22;21906;50.812;7.132;2024-01-11T05:37:24;-3274.10;66.00
4107;DHT22;21906;50.812;7.132;2024-01-11T05:39:49;-3274.10;66.10
4107;DHT22;21906;50.812;7.132;2024-01-11T05:42:15;-3274.10;66.00
4107;DHT22;21906;50.812;7.132;2024-01-11T05:44:41;-3273.90;66.40
4107;DHT22;21906;50.812;7.132;2024-01-11T05:47:06;-3273.90;66.80
4107;DHT22;21906;50.812;7.132;2024-01-11T05:49:32;-3273.90;66.70
4107;DHT22;21906;50.812;7.132;2024-01-11T05:51:58;-3273.90;66.70
4107;DHT22;21906;50.812;7.132;2024-01-11T05:54:23;-3273.90;66.60
4107;DHT22;21906;50.812;7.132;2024-01-11T05:56:49;-3273.90;66.40
4107;DHT22;21906;50.812;7.132;2024-01-11T05:59:18;-3273.90;66.20
4107;DHT22;21906;50.812;7.132;2024-01-11T06:01:43;-3274.00;66.20
4107;DHT22;21906;50.812;7.132;2024-01-11T06:04:09;-3274.00;66.00
4107;DHT22;21906;50.812;7.132;2024-01-11T06:06:35;-3274.00;65.70
4107;DHT22;21906;50.812;7.132;2024-01-11T06:09:00;-3274.00;66.10
4107;DHT22;21906;50.812;7.132;2024-01-11T06:11:29;-3274.10;66.10
4107;DHT22;21906;50.812;7.132;2024-01-11T06:13:55;-3274.00;65.90
4107;DHT22;21906;50.812;7.132;2024-01-11T06:16:21;-3274.00;65.90
4107;DHT22;21906;50.812;7.132;2024-01-11T06:18:47;-3274.00;65.80
4107;DHT22;21906;50.812;7.132;2024-01-11T06:21:12;-3274.00;66.10
4107;DHT22;21906;50.812;7.132;2024-01-11T06:23:38;-3273.90;66.00
4107;DHT22;21906;50.812;7.132;2024-01-11T06:26:04;-3273.90;66.20
4107;DHT22;21906;50.812;7.132;2024-01-11T06:28:30;-3273.90;65.80
4107;DHT22;21906;50.812;7.132;2024-01-11T06:30:55;-3273.90;65.90
4107;DHT22;21906;50.812;7.132;2024-01-11T06:33:21;-3273.90;66.00
4107;DHT22;21906;50.812;7.132;2024-01-11T06:35:47;-3273.90;65.60
4107;DHT22;21906;50.812;7.132;2024-01-11T06:38:12;-3273.80;65.60
4107;DHT22;21906;50.812;7.132;2024-01-11T06:40:38;-3273.70;66.20
4107;DHT22;21906;50.812;7.132;2024-01-11T06:43:04;-3273.80;66.20
4107;DHT22;21906;50.812;7.132;2024-01-11T06:45:29;-3273.80;66.00
4107;DHT22;21906;50.812;7.132;2024-01-11T06:47:55;-3273.80;65.90
4107;DHT22;21906;50.812;7.132;2024-01-11T06:50:22;-3273.80;66.30
4107;DHT22;21906;50.812;7.132;2024-01-11T06:52:48;-3273.70;66.10
4107;DHT22;21906;50.812;7.132;2024-01-11T06:55:13;-3273.60;66.50
4107;DHT22;21906;50.812;7.132;2024-01-11T06:57:39;-3273.50;67.30
4107;DHT22;21906;50.812;7.132;2024-01-11T07:00:06;-3273.50;67.40
4107;DHT22;21906;50.812;7.132;2024-01-11T07:02:32;-3273.70;67.10
4107;DHT22;21906;50.812;7.132;2024-01-11T07:04:58;-3273.70;66.70
4107;DHT22;21906;50.812;7.132;2024-01-11T07:07:24;-3273.80;66.50
4107;DHT22;21906;50.812;7.132;2024-01-11T07:09:50;-3273.80;66.30
4107;DHT22;21906;50.812;7.132;2024-01-11T07:12:15;-3273.80;66.30
4107;DHT22;21906;50.812;7.132;2024-01-11T07:14:42;-3273.80;66.30
4107;DHT22;21906;50.812;7.132;2024-01-11T07:17:08;-3273.80;66.30
4107;DHT22;21906;50.812;7.132;2024-01-11T07:19:33;-3273.80;66.40
4107;DHT22;21906;50.812;7.132;2024-01-11T07:21:59;-3273.60;66.60
4107;DHT22;21906;50.812;7.132;2024-01-11T07:24:25;-3273.80;66.50
4107;DHT22;21906;50.812;7.132;2024-01-11T07:26:50;-3273.80;66.30
4107;DHT22;21906;50.812;7.132;2024-01-11T07:29:16;-3273.80;66.30
4107;DHT22;21906;50.812;7.132;2024-01-11T07:31:42;-3273.80;66.40
4107;DHT22;21906;50.812;7.132;2024-01-11T07:34:07;-3273.70;66.60
4107;DHT22;21906;50.812;7.132;2024-01-11T07:36:33;-3273.70;66.60
4107;DHT22;21906;50.812;7.132;2024-01-11T07:38:59;-3273.80;66.70
4107;DHT22;21906;50.812;7.132;2024-01-11T07:41:25;-3273.70;66.60
4107;DHT22;21906;50.812;7.132;2024-01-11T07:43:50;-3273.80;66.70
4107;DHT22;21906;50.812;7.132;2024-01-11T07:46:16;-3273.80;66.70
4107;DHT22;21906;50.812;7.132;2024-01-11T07:48:42;-3273.80;66.70
4107;DHT22;21906;50.812;7.132;2024-01-11T07:51:08;-3273.70;66.70
4107;DHT22;21906;50.812;7.132;2024-01-11T07:53:33;-3273.70;66.70
4107;DHT22;21906;50.812;7.132;2024-01-11T07:55:59;-3273.70;66.80
4107;DHT22;21906;50.812;7.132;2024-01-11T07:58:26;-3273.70;66.80
4107;DHT22;21906;50.812;7.132;2024-01-11T08:00:55;-3273.60;67.30
4107;DHT22;21906;50.812;7.132;2024-01-11T08:03:20;-3273.70;67.40
4107;DHT22;21906;50.812;7.132;2024-01-11T08:05:46;-3273.70;67.30
4107;DHT22;21906;50.812;7.132;2024-01-11T08:08:12;-3273.60;67.40
4107;DHT22;21906;50.812;7.132;2024-01-11T08:10:37;-3273.70;67.30
4107;DHT22;21906;50.812;7.132;2024-01-11T08:13:03;-3273.80;67.20
4107;DHT22;21906;50.812;7.132;2024-01-11T08:15:29;-3273.80;66.80
4107;DHT22;21906;50.812;7.132;2024-01-11T08:17:55;-3273.80;67.00
4107;DHT22;21906;50.812;7.132;2024-01-11T08:20:21;-3273.90;66.80
4107;DHT22;21906;50.812;7.132;2024-01-11T08:22:46;-3273.90;66.80
4107;DHT22;21906;50.812;7.132;2024-01-11T08:25:12;-3273.90;66.90
4107;DHT22;21906;50.812;7.132;2024-01-11T08:27:41;-3274.10;66.80
4107;DHT22;21906;50.812;7.132;2024-01-11T08:30:07;-3274.10;66.80
4107;DHT22;21906;50.812;7.132;2024-01-11T08:32:33;-3274.20;66.30
4107;DHT22;21906;50.812;7.132;2024-01-11T08:35:05;-3274.20;66.30
4107;DHT22;21906;50.812;7.132;2024-01-11T08:37:32;-3274.20;66.30
4107;DHT22;21906;50.812;7.132;2024-01-11T08:39:58;-3274.30;66.40
4107;DHT22;21906;50.812;7.132;2024-01-11T08:42:24;-3274.20;66.70
4107;DHT22;21906;50.812;7.132;2024-01-11T08:44:49;-3274.30;66.70
4107;DHT22;21906;50.812;7.132;2024-01-11T08:47:15;-3274.40;66.70
4107;DHT22;21906;50.812;7.132;2024-01-11T08:49:41;-3274.40;66.50
4107;DHT22;21906;50.812;7.132;2024-01-11T08:52:07;-3274.60;66.40
4107;DHT22;21906;50.812;7.132;2024-01-11T08:54:34;-3274.70;66.30
4107;DHT22;21906;50.812;7.132;2024-01-11T08:57:00;-3274.70;66.20
4107;DHT22;21906;50.812;7.132;2024-01-11T08:59:25;-3274.80;66.20
4107;DHT22;21906;50.812;7.132;2024-01-11T09:01:52;-3274.80;66.10
4107;DHT22;21906;50.812;7.132;2024-01-11T09:04:18;-3274.90;66.10
4107;DHT22;21906;50.812;7.132;2024-01-11T09:06:44;-3275.00;65.90
4107;DHT22;21906;50.812;7.132;2024-01-11T09:09:13;-3274.90;65.60
4107;DHT22;21906;50.812;7.132;2024-01-11T09:11:40;-3275.00;65.80
4107;DHT22;21906;50.812;7.132;2024-01-11T09:14:08;-3274.90;65.50
4107;DHT22;21906;50.812;7.132;2024-01-11T09:16:37;-3274.90;66.00
4107;DHT22;21906;50.812;7.132;2024-01-11T09:19:03;-3275.10;65.90
4107;DHT22;21906;50.812;7.132;2024-01-11T09:21:28;-3275.20;65.80
4107;DHT22;21906;50.812;7.132;2024-01-11T09:23:54;-3275.30;65.60
4107;DHT22;21906;50.812;7.132;2024-01-11T09:26:20;-3275.30;65.40
4107;DHT22;21906;50.812;7.132;2024-01-11T09:28:48;-3275.40;65.30
4107;DHT22;21906;50.812;7.132;2024-01-11T09:31:14;-3275.50;65.30
4107;DHT22;21906;50.812;7.132;2024-01-11T09:33:40;-3275.50;65.20
4107;DHT22;21906;50.812;7.132;2024-01-11T09:36:08;-3275.40;65.70
4107;DHT22;21906;50.812;7.132;2024-01-11T09:38:34;-3275.30;67.20
4107;DHT22;21906;50.812;7.132;2024-01-11T09:41:10;-3275.20;68.10
4107;DHT22;21906;50.812;7.132;2024-01-11T09:43:37;-3275.30;67.40
4107;DHT22;21906;50.812;7.132;2024-01-11T09:46:05;-3275.40;67.20
4107;DHT22;21906;50.812;7.132;2024-01-11T09:48:33;-3275.70;66.80
4107;DHT22;21906;50.812;7.132;2024-01-11T09:51:04;-3275.80;66.40
4107;DHT22;21906;50.812;7.132;2024-01-11T09:53:33;-3275.80;66.40
4107;DHT22;21906;50.812;7.132;2024-01-11T09:56:08;-3276.00;66.00
4107;DHT22;21906;50.812;7.132;2024-01-11T09:58:35;-3275.90;65.20
4107;DHT22;21906;50.812;7.132;2024-01-11T10:01:09;-3276.00;66.30
4107;DHT22;21906;50.812;7.132;2024-01-11T10:03:41;-3276.10;66.30
4107;DHT22;21906;50.812;7.132;2024-01-11T10:06:07;-3276.20;66.10
4107;DHT22;21906;50.812;7.132;2024-01-11T10:08:35;-3276.40;66.00
4107;DHT22;21906;50.812;7.132;2024-01-11T10:11:04;-3276.40;65.60
4107;DHT22;21906;50.812;7.132;2024-01-11T10:13:31;-3276.40;66.20
4107;DHT22;21906;50.812;7.132;2024-01-11T10:16:11;-3276.60;66.00
4107;DHT22;21906;50.812;7.132;2024-01-11T10:18:41;-3276.70;65.10
4107;DHT22;21906;50.812;7.132;2024-01-11T10:21:07;-3276.70;64.80
4107;DHT22;21906;50.812;7.132;2024-01-11T10:23:36;0.00;65.00
4107;DHT22;21906;50.812;7.132;2024-01-11T10:26:02;0.00;64.30
4107;DHT22;21906;50.812;7.132;2024-01-11T10:28:28;0.00;64.90
4107;DHT22;21906;50.812;7.132;2024-01-11T10:30:54;-3276.70;65.70
4107;DHT22;21906;50.812;7.132;2024-01-11T10:33:21;-3276.70;65.30
4107;DHT22;21906;50.812;7.132;2024-01-11T10:35:48;0.00;64.80
4107;DHT22;21906;50.812;7.132;2024-01-11T10:38:17;0.00;64.60
4107;DHT22;21906;50.812;7.132;2024-01-11T10:40:43;0.10;63.40
4107;DHT22;21906;50.812;7.132;2024-01-11T10:43:10;0.20;63.70
4107;DHT22;21906;50.812;7.132;2024-01-11T10:45:40;0.30;63.70
4107;DHT22;21906;50.812;7.132;2024-01-11T10:48:13;0.20;64.80
4107;DHT22;21906;50.812;7.132;2024-01-11T10:50:43;0.30;64.60
4107;DHT22;21906;50.812;7.132;2024-01-11T10:53:31;0.20;64.00
4107;DHT22;21906;50.812;7.132;2024-01-11T10:56:01;0.40;64.10
4107;DHT22;21906;50.812;7.132;2024-01-11T10:58:29;0.50;63.90
4107;DHT22;21906;50.812;7.132;2024-01-11T11:00:56;0.40;64.40
4107;DHT22;21906;50.812;7.132;2024-01-11T11:03:23;0.20;65.90
4107;DHT22;21906;50.812;7.132;2024-01-11T11:05:53;0.30;66.50
4107;DHT22;21906;50.812;7.132;2024-01-11T11:08:19;0.40;64.60
4107;DHT22;21906;50.812;7.132;2024-01-11T11:10:46;0.50;63.80
4107;DHT22;21906;50.812;7.132;2024-01-11T11:13:14;0.60;64.60
4107;DHT22;21906;50.812;7.132;2024-01-11T11:15:45;0.60;67.00
4107;DHT22;21906;50.812;7.132;2024-01-11T11:18:13;0.90;65.80
4107;DHT22;21906;50.812;7.132;2024-01-11T11:20:40;1.10;64.00
4107;DHT22;21906;50.812;7.132;2024-01-11T11:23:10;1.40;64.10
4107;DHT22;21906;50.812;7.132;2024-01-11T11:25:37;1.40;67.00
4107;DHT22;21906;50.812;7.132;2024-01-11T11:28:05;1.50;65.40
4107;DHT22;21906;50.812;7.132;2024-01-11T11:30:32;1.50;62.80
4107;DHT22;21906;50.812;7.132;2024-01-11T11:33:10;1.60;64.30
4107;DHT22;21906;50.812;7.132;2024-01-11T11:35:37;1.90;63.60
4107;DHT22;21906;50.812;7.132;2024-01-11T11:38:03;1.90;62.00
4107;DHT22;21906;50.812;7.132;2024-01-11T11:40:36;1.80;62.50
4107;DHT22;21906;50.812;7.132;2024-01-11T11:43:07;1.90;61.80
4107;DHT22;21906;50.812;7.132;2024-01-11T11:45:33;1.80;61.80
4107;DHT22;21906;50.812;7.132;2024-01-11T11:47:58;2.00;62.20
4107;DHT22;21906;50.812;7.132;2024-01-11T11:50:24;1.90;60.70
4107;DHT22;21906;50.812;7.132;2024-01-11T11:52:57;2.10;61.00
4107;DHT22;21906;50.812;7.132;2024-01-11T11:55:24;2.20;61.10
4107;DHT22;21906;50.812;7.132;2024-01-11T11:57:56;2.30;60.90
4107;DHT22;21906;50.812;7.132;2024-01-11T12:00:21;2.30;61.20
4107;DHT22;21906;50.812;7.132;2024-01-11T12:02:49;2.40;60.80
4107;DHT22;21906;50.812;7.132;2024-01-11T12:05:17;2.40;60.40
4107;DHT22;21906;50.812;7.132;2024-01-11T12:07:44;2.50;59.40
4107;DHT22;21906;50.812;7.132;2024-01-11T12:10:11;2.60;59.90
4107;DHT22;21906;50.812;7.132;2024-01-11T12:12:37;2.70;59.80
4107;DHT22;21906;50.812;7.132;2024-01-11T12:15:05;2.80;59.30
4107;DHT22;21906;50.812;7.132;2024-01-11T12:17:31;2.80;60.50
4107;DHT22;21906;50.812;7.132;2024-01-11T12:19:56;2.80;59.00
4107;DHT22;21906;50.812;7.132;2024-01-11T12:22:23;2.90;59.60
4107;DHT22;21906;50.812;7.132;2024-01-11T12:24:49;2.80;59.30
4107;DHT22;21906;50.812;7.132;2024-01-11T12:27:15;2.80;59.10
4107;DHT22;21906;50.812;7.132;2024-01-11T12:29:41;2.80;58.80
4107;DHT22;21906;50.812;7.132;2024-01-11T12:32:08;2.90;58.80
4107;DHT22;21906;50.812;7.132;2024-01-11T12:34:37;3.10;58.40
4107;DHT22;21906;50.812;7.132;2024-01-11T12:37:05;3.10;58.20
4107;DHT22;21906;50.812;7.132;2024-01-11T12:39:31;3.40;58.10
4107;DHT22;21906;50.812;7.132;2024-01-11T12:41:57;3.60;57.20
4107;DHT22;21906;50.812;7.132;2024-01-11T12:44:26;3.80;56.40
4107;DHT22;21906;50.812;7.132;2024-01-11T12:46:52;3.50;56.70
4107;DHT22;21906;50.812;7.132;2024-01-11T12:49:18;3.50;57.00
4107;DHT22;21906;50.812;7.132;2024-01-11T12:51:44;3.50;58.60
4107;DHT22;21906;50.812;7.132;2024-01-11T12:54:13;3.40;57.20
4107;DHT22;21906;50.812;7.132;2024-01-11T12:56:48;3.50;57.40
4107;DHT22;21906;50.812;7.132;2024-01-11T12:59:15;3.90;56.80
4107;DHT22;21906;50.812;7.132;2024-01-11T13:01:42;3.90;55.50
4107;DHT22;21906;50.812;7.132;2024-01-11T13:04:10;3.90;55.50
4107;DHT22;21906;50.812;7.132;2024-01-11T13:06:37;4.00;55.90
4107;DHT22;21906;50.812;7.132;2024-01-11T13:09:03;4.20;55.70
4107;DHT22;21906;50.812;7.132;2024-01-11T13:11:29;4.20;55.80
4107;DHT22;21906;50.812;7.132;2024-01-11T13:13:56;4.10;57.10
4107;DHT22;21906;50.812;7.132;2024-01-11T13:16:27;4.30;56.30
4107;DHT22;21906;50.812;7.132;2024-01-11T13:18:57;4.40;55.80
4107;DHT22;21906;50.812;7.132;2024-01-11T13:21:23;4.60;55.20
4107;DHT22;21906;50.812;7.132;2024-01-11T13:23:49;4.70;55.50
4107;DHT22;21906;50.812;7.132;2024-01-11T13:26:15;4.80;55.20
4107;DHT22;21906;50.812;7.132;2024-01-11T13:28:40;4.90;54.90
4107;DHT22;21906;50.812;7.132;2024-01-11T13:31:06;4.70;55.50
4107;DHT22;21906;50.812;7.132;2024-01-11T13:33:35;4.60;55.50
4107;DHT22;21906;50.812;7.132;2024-01-11T13:36:01;4.60;55.10
4107;DHT22;21906;50.812;7.132;2024-01-11T13:38:27;4.80;54.80
4107;DHT22;21906;50.812;7.132;2024-01-11T13:40:53;4.90;54.70
4107;DHT22;21906;50.812;7.132;2024-01-11T13:43:19;4.90;55.00
4107;DHT22;21906;50.812;7.132;2024-01-11T13:45:45;5.00;54.70
4107;DHT22;21906;50.812;7.132;2024-01-11T13:48:11;5.00;54.40
4107;DHT22;21906;50.812;7.132;2024-01-11T13:50:36;5.10;54.20
4107;DHT22;21906;50.812;7.132;2024-01-11T13:53:02;5.00;53.80
4107;DHT22;21906;50.812;7.132;2024-01-11T13:55:28;4.90;53.80
4107;DHT22;21906;50.812;7.132;2024-01-11T13:58:03;4.70;53.60
4107;DHT22;21906;50.812;7.132;2024-01-11T14:00:28;4.70;54.20
4107;DHT22;21906;50.812;7.132;2024-01-11T14:02:54;4.60;53.30
4107;DHT22;21906;50.812;7.132;2024-01-11T14:05:20;4.40;53.60
4107;DHT22;21906;50.812;7.132;2024-01-11T14:07:46;4.30;53.80
4107;DHT22;21906;50.812;7.132;2024-01-11T14:10:14;4.00;54.70
4107;DHT22;21906;50.812;7.132;2024-01-11T14:12:40;3.90;55.10
4107;DHT22;21906;50.812;7.132;2024-01-11T14:15:08;3.90;55.20
4107;DHT22;21906;50.812;7.132;2024-01-11T14:17:37;3.80;55.70
4107;DHT22;21906;50.812;7.132;2024-01-11T14:20:04;3.70;55.90
4107;DHT22;21906;50.812;7.132;2024-01-11T14:22:32;3.60;56.20
4107;DHT22;21906;50.812;7.132;2024-01-11T14:24:58;3.60;56.90
4107;DHT22;21906;50.812;7.132;2024-01-11T14:27:24;3.70;56.50
4107;DHT22;21906;50.812;7.132;2024-01-11T14:29:49;3.70;56.50
4107;DHT22;21906;50.812;7.132;2024-01-11T14:32:15;3.90;55.90
4107;DHT22;21906;50.812;7.132;2024-01-11T14:34:44;3.80;55.90
4107;DHT22;21906;50.812;7.132;2024-01-11T14:37:11;3.70;56.10
4107;DHT22;21906;50.812;7.132;2024-01-11T14:39:37;3.70;56.60
4107;DHT22;21906;50.812;7.132;2024-01-11T14:42:04;3.60;56.80
4107;DHT22;21906;50.812;7.132;2024-01-11T14:44:29;3.60;57.30
4107;DHT22;21906;50.812;7.132;2024-01-11T14:46:55;3.70;56.90
4107;DHT22;21906;50.812;7.132;2024-01-11T14:49:21;3.60;57.10
4107;DHT22;21906;50.812;7.132;2024-01-11T14:51:49;3.60;56.90
4107;DHT22;21906;50.812;7.132;2024-01-11T14:54:15;3.50;56.80
4107;DHT22;21906;50.812;7.132;2024-01-11T14:56:42;3.30;57.70
4107;DHT22;21906;50.812;7.132;2024-01-11T14:59:08;3.30;58.00
4107;DHT22;21906;50.812;7.132;2024-01-11T15:01:35;3.40;58.30
4107;DHT22;21906;50.812;7.132;2024-01-11T15:04:00;3.40;58.30
4107;DHT22;21906;50.812;7.132;2024-01-11T15:06:26;3.40;58.00
4107;DHT22;21906;50.812;7.132;2024-01-11T15:08:52;3.40;57.40
4107;DHT22;21906;50.812;7.132;2024-01-11T15:11:18;3.40;57.50
4107;DHT22;21906;50.812;7.132;2024-01-11T15:13:44;3.50;57.70
4107;DHT22;21906;50.812;7.132;2024-01-11T15:16:10;3.40;57.90
4107;DHT22;21906;50.812;7.132;2024-01-11T15:18:35;3.40;58.00